Time;durP1;ratioP1;P1;durP2;ratioP2;P2;SDS_P1;SDS_P2;PMS_P1;PMS_P2;Temp;Humidity;BMP_temperature;BMP_pressure;BME280_temperature;BME280_humidity;BME280_pressure;Samples;Min_cycle;Max_cycle;Signal;HPM_P1;HPM_P2
2023/03/23 00:01:19;;;;;;;;;1.00;1.00;;;;;15.89;100.00;99896.75;4875851;29;45531;-80
2023/03/23 00:03:45;;;;;;;;;1.00;1.00;;;;;15.88;100.00;99908.41;4893993;29;45465;-80
2023/03/23 00:06:16;;;;;;;;;0.00;0.00;;;;;15.83;100.00;99899.56;4893170;29;45406;-81
2023/03/23 00:08:52;;;;;;;;;1.33;1.00;;;;;15.93;100.00;99910.97;4879153;29;45425;-80
2023/03/23 00:11:20;;;;;;;;;1.33;1.33;;;;;15.93;100.00;99892.19;4893363;29;45753;-80
2023/03/23 00:13:51;;;;;;;;;1.00;1.00;;;;;15.93;100.00;99893.06;4893532;29;45423;-81
2023/03/23 00:16:19;;;;;;;;;1.00;1.00;;;;;15.83;100.00;99890.63;4893297;29;45084;-81
2023/03/23 00:18:52;;;;;;;;;1.25;1.25;;;;;15.91;100.00;99891.34;4877193;29;45377;-81
2023/03/23 00:21:25;;;;;;;;;0.33;0.33;;;;;15.79;100.00;99877.31;4895727;29;45389;-82
2023/03/23 00:23:53;;;;;;;;;1.00;1.00;;;;;15.68;100.00;99884.66;4895700;29;45621;-82
2023/03/23 00:26:19;;;;;;;;;1.00;1.00;;;;;15.73;100.00;99888.13;4893708;29;45450;-82
2023/03/23 00:28:46;;;;;;;;;3.00;2.00;;;;;15.72;100.00;99897.09;4893766;29;45854;-82
2023/03/23 00:31:13;;;;;;;;;0.67;0.67;;;;;15.66;100.00;99891.84;4891482;29;44805;-80
2023/03/23 00:33:40;;;;;;;;;1.67;1.00;;;;;15.65;100.00;99882.00;4891339;29;45382;-81
2023/03/23 00:36:27;;;;;;;;;2.00;2.00;;;;;15.80;100.00;99871.03;4891248;29;47693;-81
2023/03/23 00:38:52;;;;;;;;;1.25;1.00;;;;;15.62;100.00;99874.06;4875658;29;45805;-81
2023/03/23 00:41:20;;;;;;;;;0.00;0.00;;;;;15.75;100.00;99891.69;4876413;29;45557;-82
2023/03/23 00:43:45;;;;;;;;;1.00;1.00;;;;;15.60;100.00;99875.88;4892841;29;45404;-82
2023/03/23 00:46:11;;;;;;;;;1.00;1.00;;;;;15.61;100.00;99877.63;4894166;29;46042;-82
2023/03/23 00:48:44;;;;;;;;;2.00;2.00;;;;;15.65;100.00;99873.97;4892941;29;45376;-82
2023/03/23 00:51:10;;;;;;;;;0.00;0.00;;;;;15.65;100.00;99883.81;4876530;29;45508;-82
2023/03/23 00:53:37;;;;;;;;;1.67;1.67;;;;;15.66;100.00;99883.78;4876205;29;45367;-82
2023/03/23 00:56:02;;;;;;;;;3.00;1.67;;;;;15.66;100.00;99881.13;4891567;29;47933;-81
2023/03/23 00:58:27;;;;;;;;;1.00;1.00;;;;;15.70;100.00;99893.53;4892057;29;46167;-82
2023/03/23 01:00:53;;;;;;;;;1.00;1.00;;;;;15.70;100.00;99885.50;4891921;29;45354;-81
2023/03/23 01:03:18;;;;;;;;;1.00;1.00;;;;;15.71;100.00;99883.69;4892189;29;45464;-82
2023/03/23 01:05:46;;;;;;;;;1.00;1.00;;;;;15.77;100.00;99889.88;4893102;29;47058;-81
2023/03/23 01:08:14;;;;;;;;;2.25;1.00;;;;;15.78;100.00;99880.00;4892654;29;45469;-80
2023/03/23 01:10:40;;;;;;;;;2.00;1.00;;;;;15.77;100.00;99878.22;4891069;29;45549;-80
2023/03/23 01:13:33;;;;;;;;;2.00;2.00;;;;;15.96;100.00;99873.38;4890871;29;44921;-81
2023/03/23 01:15:58;;;;;;;;;0.00;0.00;;;;;15.73;100.00;99861.31;4892176;29;46812;-81
2023/03/23 01:18:24;;;;;;;;;1.00;1.00;;;;;15.73;100.00;99864.00;4891711;29;45830;-81
2023/03/23 01:20:51;;;;;;;;;5.67;4.00;;;;;15.84;100.00;99871.84;4893242;29;45401;-82
2023/03/23 01:23:16;;;;;;;;;3.00;3.00;;;;;15.67;100.00;99860.53;4875954;29;45389;-82
2023/03/23 01:25:45;;;;;;;;;3.00;3.00;;;;;15.74;100.00;99873.84;4892943;29;47117;-82
2023/03/23 01:28:13;;;;;;;;;3.33;3.33;;;;;15.74;100.00;99871.16;4893300;29;45726;-81
2023/03/23 01:30:38;;;;;;;;;3.00;2.00;;;;;15.74;100.00;99863.09;4895186;29;45434;-82
2023/03/23 01:33:04;;;;;;;;;1.33;1.33;;;;;15.71;100.00;99846.16;4893379;29;45714;-82
2023/03/23 01:35:29;;;;;;;;;1.00;1.00;;;;;15.67;100.00;99834.63;4892446;29;45504;-82
2023/03/23 01:37:56;;;;;;;;;2.00;2.00;;;;;15.71;100.00;99836.31;4893042;29;45780;-82
2023/03/23 01:40:21;;;;;;;;;4.00;2.00;;;;;15.64;100.00;99842.75;4875588;29;45407;-82
2023/03/23 01:42:47;;;;;;;;;2.00;2.00;;;;;15.61;100.00;99840.09;4892346;29;45485;-82
2023/03/23 01:45:30;;;;;;;;;3.00;2.00;;;;;15.75;100.00;99832.72;4893822;29;45451;-82
2023/03/23 01:48:02;;;;;;;;;1.00;1.00;;;;;15.67;100.00;99829.25;4874519;29;45462;-81
2023/03/23 01:50:31;;;;;;;;;1.00;1.00;;;;;15.57;100.00;99812.50;4890862;29;45463;-81
2023/03/23 01:52:59;;;;;;;;;3.00;2.00;;;;;15.58;100.00;99814.25;4891794;29;45387;-81
2023/03/23 01:55:27;;;;;;;;;2.00;2.00;;;;;15.55;100.00;99790.22;4891510;29;45437;-81
2023/03/23 01:57:57;;;;;;;;;2.00;2.00;;;;;15.59;100.00;99802.66;4874561;29;45556;-81
2023/03/23 02:00:24;;;;;;;;;1.00;1.00;;;;;15.49;100.00;99794.81;4890106;29;45504;-81
2023/03/23 02:02:55;;;;;;;;;1.00;1.00;;;;;15.51;100.00;99801.03;4890086;29;45356;-82
2023/03/23 02:05:31;;;;;;;;;2.00;2.00;;;;;15.55;100.00;99808.09;4891421;29;45822;-81
2023/03/23 02:08:02;;;;;;;;;1.33;1.33;;;;;15.53;100.00;99824.22;4890540;29;45459;-82
2023/03/23 02:10:31;;;;;;;;;2.00;2.00;;;;;15.46;100.00;99819.00;4875273;29;45468;-81
2023/03/23 02:12:58;;;;;;;;;2.00;2.00;;;;;15.54;100.00;99830.44;4891139;29;45665;-82
2023/03/23 02:15:28;;;;;;;;;2.00;2.00;;;;;15.61;100.00;99850.84;4874786;29;47199;-82
2023/03/23 02:18:14;;;;;;;;;1.00;1.00;;;;;15.60;100.00;99860.69;4875018;29;45446;-82
2023/03/23 02:21:18;;;;;;;;;2.00;1.00;;;;;15.60;100.00;99867.84;4892798;29;45569;-82
2023/03/23 02:23:43;;;;;;;;;3.33;3.33;;;;;15.48;100.00;99866.28;4832905;29;45451;-81
2023/03/23 02:26:42;;;;;;;;;3.33;3.00;;;;;15.68;100.00;99860.53;4834388;29;45469;-82
2023/03/23 02:29:11;;;;;;;;;4.00;4.00;;;;;15.49;100.00;99872.53;4818199;29;45522;-82
2023/03/23 02:32:07;;;;;;;;;3.00;1.67;;;;;15.69;100.00;99870.31;4834520;29;45334;-81
2023/03/23 02:34:48;;;;;;;;;1.00;1.00;;;;;15.60;100.00;99870.53;4834404;29;45447;-81
2023/03/23 02:37:24;;;;;;;;;3.00;2.00;;;;;15.60;100.00;99865.16;4833738;29;45496;-82
2023/03/23 02:39:56;;;;;;;;;3.00;3.00;;;;;15.58;100.00;99891.13;4818302;29;46223;-83
2023/03/23 02:42:31;;;;;;;;;1.67;1.67;;;;;15.66;100.00;99881.13;4832601;29;45470;-83
2023/03/23 02:45:02;;;;;;;;;1.00;1.00;;;;;15.61;100.00;99864.22;4818259;29;45384;-85
2023/03/23 02:47:29;;;;;;;;;1.00;1.00;;;;;15.65;100.00;99867.75;4831742;29;45399;-81
2023/03/23 02:49:58;;;;;;;;;1.67;1.33;;;;;15.62;100.00;99852.63;4816771;29;45824;-82
2023/03/23 02:52:29;;;;;;;;;1.00;1.00;;;;;15.66;100.00;99859.66;4816819;29;45769;-81
2023/03/23 02:54:59;;;;;;;;;2.00;2.00;;;;;15.62;100.00;99847.25;4832364;29;45574;-84
2023/03/23 02:57:27;;;;;;;;;1.00;1.00;;;;;15.54;100.00;99850.09;4817154;29;47114;-81
2023/03/23 02:59:52;;;;;;;;;2.00;2.00;;;;;15.55;100.00;99861.69;4843123;29;45507;-82
2023/03/23 03:02:23;;;;;;;;;2.00;2.00;;;;;15.73;100.00;99849.72;4873250;29;45661;-82
2023/03/23 03:04:59;;;;;;;;;3.33;2.00;;;;;15.77;100.00;99836.25;4890672;29;45328;-82
2023/03/23 03:07:55;;;;;;;;;3.00;2.00;;;;;15.79;100.00;99823.69;4889755;29;47273;-82
2023/03/23 03:10:42;;;;;;;;;1.00;1.00;;;;;15.77;100.00;99827.31;4889609;29;45463;-81
2023/03/23 03:13:15;;;;;;;;;1.00;1.00;;;;;15.72;100.00;99830.09;4883053;29;45734;-81
2023/03/23 03:15:51;;;;;;;;;2.00;2.00;;;;;15.69;100.00;99838.16;4891770;29;45512;-80
2023/03/23 03:19:04;;;;;;;;;1.00;1.00;;;;;15.84;100.00;99846.84;4892482;29;45427;-81
2023/03/23 03:21:35;;;;;;;;;5.00;2.00;;;;;15.79;100.00;99846.91;4891742;29;45418;-82
2023/03/23 03:24:03;;;;;;;;;1.00;1.00;;;;;15.75;100.00;99832.72;4891409;29;45499;-82
2023/03/23 03:26:34;;;;;;;;;1.00;1.00;;;;;15.75;100.00;99821.09;4875936;29;45302;-82
2023/03/23 03:29:01;;;;;;;;;2.00;2.00;;;;;15.66;100.00;99840.03;4891982;29;46385;-82
2023/03/23 03:31:30;;;;;;;;;3.67;2.00;;;;;15.73;100.00;99839.00;4874618;29;45522;-80
2023/03/23 03:33:56;;;;;;;;;2.67;2.67;;;;;15.62;100.00;99846.38;4889845;29;45352;-81
2023/03/23 03:36:34;;;;;;;;;2.00;2.00;;;;;15.72;100.00;99832.78;4889476;29;45358;-81
2023/03/23 03:39:03;;;;;;;;;1.00;1.00;;;;;15.65;100.00;99835.56;4891365;29;45633;-81
2023/03/23 03:41:29;;;;;;;;;2.00;2.00;;;;;15.64;100.00;99834.69;4892241;28;45359;-82
2023/03/23 03:43:54;;;;;;;;;2.00;2.00;;;;;15.63;100.00;99840.09;4892434;29;45419;-81
2023/03/23 03:46:20;;;;;;;;;3.00;3.00;;;;;15.62;100.00;99831.16;4890720;28;45283;-82
2023/03/23 03:48:45;;;;;;;;;0.67;0.67;;;;;15.58;100.00;99824.09;4891456;29;45601;-82
2023/03/23 03:51:11;;;;;;;;;1.00;1.00;;;;;15.61;100.00;99834.75;4890083;29;45436;-82
2023/03/23 03:53:37;;;;;;;;;3.00;3.00;;;;;15.61;100.00;99821.34;4890023;29;45494;-82
2023/03/23 03:56:02;;;;;;;;;3.67;2.00;;;;;15.58;100.00;99813.38;4891342;29;44788;-82
2023/03/23 03:58:31;;;;;;;;;2.67;1.67;;;;;15.58;100.00;99830.34;4888822;29;46983;-82
2023/03/23 04:01:00;;;;;;;;;2.33;2.33;;;;;15.72;100.00;99823.81;4874871;29;45505;-82
2023/03/23 04:03:27;;;;;;;;;2.00;2.00;;;;;15.72;100.00;99826.50;4889175;29;45802;-81
2023/03/23 04:05:59;;;;;;;;;2.67;2.67;;;;;15.76;100.00;99829.09;4873198;29;45452;-80
2023/03/23 04:08:26;;;;;;;;;1.33;1.33;;;;;15.65;100.00;99838.25;4887265;29;47363;-81
2023/03/23 04:11:00;;;;;;;;;2.67;1.00;;;;;15.72;100.00;99832.78;4888217;29;45469;-81
2023/03/23 04:13:26;;;;;;;;;1.67;1.67;;;;;15.58;100.00;99830.34;4887923;29;45516;-80
2023/03/23 04:15:58;;;;;;;;;2.33;2.33;;;;;15.80;100.00;99846.88;4889726;29;45394;-81
2023/03/23 04:18:24;;;;;;;;;1.00;1.00;;;;;15.57;100.00;99823.22;4892237;29;45374;-82
2023/03/23 04:20:51;;;;;;;;;1.67;1.67;;;;;15.69;100.00;99842.63;4891779;29;45961;-80
2023/03/23 04:23:21;;;;;;;;;3.00;3.00;;;;;15.65;100.00;99841.81;4876242;29;45539;-81
2023/03/23 04:25:51;;;;;;;;;1.67;1.67;;;;;15.65;100.00;99847.16;4893494;29;45708;-81
2023/03/23 04:28:23;;;;;;;;;1.00;1.00;;;;;15.79;100.00;99854.97;4892324;29;46207;-81
2023/03/23 04:30:52;;;;;;;;;1.00;1.00;;;;;15.67;100.00;99866.78;4892265;29;45344;-82
2023/03/23 04:33:19;;;;;;;;;2.00;2.00;;;;;15.70;100.00;99871.22;4891614;29;45588;-83
2023/03/23 04:35:45;;;;;;;;;1.00;1.00;;;;;15.72;100.00;99883.69;4891614;29;45675;-82
2023/03/23 04:38:13;;;;;;;;;3.00;3.00;;;;;15.78;100.00;99859.44;4892548;29;45472;-82
2023/03/23 04:40:41;;;;;;;;;1.00;1.00;;;;;15.79;100.00;99861.22;4892757;29;45796;-82
2023/03/23 04:43:07;;;;;;;;;1.00;1.00;;;;;15.73;100.00;99855.97;4890875;29;45437;-81
2023/03/23 04:45:34;;;;;;;;;1.00;1.00;;;;;15.83;100.00;99853.97;4893218;29;45406;-82
2023/03/23 04:48:01;;;;;;;;;1.25;1.00;;;;;15.73;100.00;99858.66;4891233;29;47537;-82
2023/03/23 04:50:32;;;;;;;;;3.00;1.00;;;;;15.83;100.00;99867.38;4891762;29;45484;-82
2023/03/23 04:52:58;;;;;;;;;1.00;1.00;;;;;15.65;100.00;99855.22;4877119;29;44852;-81
2023/03/23 04:55:25;;;;;;;;;2.00;2.00;;;;;15.62;100.00;99844.56;4892608;29;45821;-82
2023/03/23 04:57:52;;;;;;;;;1.00;1.00;;;;;15.60;100.00;99858.00;4892833;29;45377;-82
2023/03/23 05:00:18;;;;;;;;;2.00;2.00;;;;;15.60;100.00;99860.69;4890591;29;45423;-80
2023/03/23 05:02:46;;;;;;;;;3.33;3.33;;;;;15.57;100.00;99855.41;4891546;29;45362;-80
2023/03/23 05:05:14;;;;;;;;;2.00;2.00;;;;;15.55;100.00;99856.31;4891866;29;45445;-80
2023/03/23 05:07:41;;;;;;;;;1.00;1.00;;;;;15.53;100.00;99851.00;4891172;29;45533;-81
2023/03/23 05:10:10;;;;;;;;;1.00;1.00;;;;;15.55;100.00;99850.97;4906658;29;45397;-82
2023/03/23 05:12:36;;;;;;;;;3.00;1.33;;;;;15.53;100.00;99860.81;4882938;29;45326;-81
2023/03/23 05:15:02;;;;;;;;;1.00;1.00;;;;;15.54;100.00;99862.59;4873052;29;45438;-81
2023/03/23 05:17:29;;;;;;;;;2.00;0.33;;;;;15.51;100.00;99857.28;4874748;29;46100;-82
2023/03/23 05:19:56;;;;;;;;;2.33;1.67;;;;;15.56;100.00;99863.47;4873201;29;45497;-82
2023/03/23 05:22:23;;;;;;;;;1.00;1.00;;;;;15.52;100.00;99851.03;4875490;29;45363;-81
2023/03/23 05:24:51;;;;;;;;;2.00;2.00;;;;;15.54;100.00;99855.44;4873475;29;45359;-82
2023/03/23 05:27:18;;;;;;;;;0.33;0.33;;;;;15.54;100.00;99865.28;4872087;29;47095;-82
2023/03/23 05:30:06;;;;;;;;;2.00;2.00;;;;;15.44;100.00;99863.72;4855113;29;45533;-81
2023/03/23 05:32:31;;;;;;;;;2.00;2.00;;;;;15.38;100.00;99856.66;4871739;29;45460;-81
2023/03/23 05:34:58;;;;;;;;;1.00;1.00;;;;;15.42;100.00;99863.72;4872761;29;45442;-81
2023/03/23 05:37:26;;;;;;;;;1.00;1.00;;;;;15.37;100.00;99882.59;4873762;29;48276;-81
2023/03/23 05:39:53;;;;;;;;;1.00;1.00;;;;;15.31;100.00;99863.94;4872553;29;45372;-81
2023/03/23 05:42:20;;;;;;;;;3.00;2.00;;;;;15.43;100.00;99883.38;4857804;29;44933;-82
2023/03/23 05:44:47;;;;;;;;;1.33;1.33;;;;;15.25;100.00;99852.44;4858377;29;45526;-81
2023/03/23 05:47:13;;;;;;;;;2.00;2.00;;;;;15.26;100.00;99867.63;4873933;29;45360;-80
2023/03/23 05:49:38;;;;;;;;;1.00;1.00;;;;;15.25;100.00;99869.44;4871903;29;45376;-82
2023/03/23 05:52:07;;;;;;;;;2.00;2.00;;;;;15.36;100.00;99866.53;4873435;29;45398;-81
2023/03/23 05:54:36;;;;;;;;;2.00;2.00;;;;;15.22;100.00;99861.44;4873859;29;45839;-81
2023/03/23 05:57:02;;;;;;;;;1.67;1.67;;;;;15.16;100.00;99858.88;4856115;29;46824;-80
2023/03/23 05:59:27;;;;;;;;;1.00;1.00;;;;;15.18;100.00;99867.78;4872484;29;45407;-79
2023/03/23 06:01:57;;;;;;;;;2.00;2.00;;;;;15.20;100.00;99877.53;4870319;29;45348;-81
2023/03/23 06:04:24;;;;;;;;;1.67;1.00;;;;;15.15;100.00;99865.16;4872219;29;45879;-81
2023/03/23 06:06:51;;;;;;;;;1.00;1.00;;;;;15.13;100.00;99870.53;4873454;29;47279;-82
2023/03/23 06:09:21;;;;;;;;;2.00;2.00;;;;;15.11;100.00;99876.84;4871938;29;45335;-81
2023/03/23 06:11:47;;;;;;;;;2.00;1.00;;;;;15.16;100.00;99873.16;4874272;29;45482;-82
2023/03/23 06:14:13;;;;;;;;;1.00;1.00;;;;;15.10;100.00;99880.41;4874139;29;45460;-82
2023/03/23 06:16:40;;;;;;;;;1.33;1.33;;;;;15.12;100.00;99875.91;4877336;29;45382;-81
2023/03/23 06:19:05;;;;;;;;;1.67;1.67;;;;;15.04;100.00;99876.06;4859093;29;44937;-82
2023/03/23 06:21:31;;;;;;;;;0.67;0.67;;;;;15.12;100.00;99874.13;4873544;29;45032;-82
2023/03/23 06:23:58;;;;;;;;;2.00;2.00;;;;;15.03;100.00;99870.72;4873088;29;45421;-82
2023/03/23 06:26:28;;;;;;;;;1.00;1.00;;;;;15.16;100.00;99874.94;4872320;29;46884;-83
2023/03/23 06:28:54;;;;;;;;;1.33;1.33;;;;;15.08;100.00;99874.22;4874410;29;44798;-82
2023/03/23 06:31:20;;;;;;;;;1.00;1.00;;;;;15.06;100.00;99874.22;4859719;29;44870;-81
2023/03/23 06:33:47;;;;;;;;;1.00;1.00;;;;;15.12;100.00;99886.63;4874669;29;45365;-82
2023/03/23 06:36:13;;;;;;;;;1.67;1.67;;;;;15.13;100.00;99869.66;4873571;29;46470;-82
2023/03/23 06:38:38;;;;;;;;;1.67;1.67;;;;;15.18;100.00;99881.16;4859069;29;46301;-81
2023/03/23 06:41:04;;;;;;;;;1.33;1.00;;;;;15.19;100.00;99885.63;4875364;29;45267;-82
2023/03/23 06:43:33;;;;;;;;;2.00;2.00;;;;;15.24;100.00;99904.28;4875638;29;45315;-81
2023/03/23 06:46:00;;;;;;;;;1.67;1.67;;;;;15.31;100.00;99917.53;4875139;29;45468;-80
2023/03/23 06:48:32;;;;;;;;;1.00;1.00;;;;;15.45;100.00;99924.41;4876378;29;45524;-81
2023/03/23 06:50:58;;;;;;;;;1.00;1.00;;;;;15.32;100.00;99924.66;4873250;29;45420;-82
2023/03/23 06:53:24;;;;;;;;;2.67;2.00;;;;;15.43;100.00;99931.59;4873913;29;45377;-82
2023/03/23 06:55:51;;;;;;;;;5.00;5.00;;;;;15.48;100.00;99929.72;4876547;29;44988;-83
2023/03/23 06:58:17;;;;;;;;;3.67;1.00;;;;;15.48;100.00;99922.56;4875949;29;45342;-83
2023/03/23 07:00:46;;;;;;;;;2.00;2.00;;;;;15.55;100.00;99929.59;4858490;29;45368;-82
2023/03/23 07:03:12;;;;;;;;;2.00;2.00;;;;;15.51;100.00;99935.00;4878375;29;45430;-81
2023/03/23 07:05:37;;;;;;;;;5.33;3.67;;;;;15.49;100.00;99932.38;4890554;29;45384;-81
2023/03/23 07:08:10;;;;;;;;;1.00;1.00;;;;;15.54;100.00;99929.59;4899689;29;44908;-81
2023/03/23 07:10:37;;;;;;;;;3.33;2.00;;;;;15.55;100.00;99942.97;4891908;29;44995;-81
2023/03/23 07:13:02;;;;;;;;;4.00;3.00;;;;;15.58;100.00;99936.69;4875950;29;45398;-82
2023/03/23 07:15:27;;;;;;;;;2.00;2.00;;;;;15.57;100.00;99925.09;4891872;29;45821;-81
2023/03/23 07:17:55;;;;;;;;;4.33;4.33;;;;;15.72;100.00;99931.94;4877040;29;45381;-82
2023/03/23 07:20:20;;;;;;;;;2.00;2.00;;;;;15.65;100.00;99938.31;4891917;29;45481;-81
2023/03/23 07:22:46;;;;;;;;;5.00;5.00;;;;;15.62;100.00;99926.78;4874173;29;45465;-82
2023/03/23 07:25:11;;;;;;;;;2.67;2.67;;;;;15.70;100.00;99927.50;4892930;29;45432;-81
2023/03/23 07:27:37;;;;;;;;;4.00;4.00;;;;;15.76;100.00;99924.75;4894561;29;44749;-81
2023/03/23 07:30:04;;;;;;;;;3.00;3.00;;;;;15.83;100.00;99914.75;4892640;29;45444;-81
2023/03/23 07:32:29;;;;;;;;;3.00;3.00;;;;;15.88;100.00;99928.97;4877789;28;45462;-82
2023/03/23 07:34:55;;;;;;;;;2.33;2.33;;;;;16.00;100.00;99928.72;4893615;29;45665;-82
2023/03/23 07:37:22;;;;;;;;;3.67;3.67;;;;;16.04;100.00;99919.69;4892776;29;45407;-82
2023/03/23 07:39:47;;;;;;;;;3.67;3.00;;;;;16.15;100.00;99917.63;4891098;29;45496;-82
2023/03/23 07:42:13;;;;;;;;;4.67;4.67;;;;;16.25;100.00;99938.91;4891928;29;45117;-81
2023/03/23 07:44:39;;;;;;;;;4.00;4.00;;;;;16.27;100.00;99959.41;4882441;29;47425;-82
2023/03/23 07:47:13;;;;;;;;;3.67;3.67;;;;;16.33;100.00;99947.66;4889138;29;45486;-82
2023/03/23 07:49:39;;;;;;;;;3.33;3.33;;;;;16.42;100.00;99946.56;4875499;29;45592;-82
2023/03/23 07:52:04;;;;;;;;;4.00;2.00;;;;;16.46;100.00;99937.53;4875948;29;45537;-83
2023/03/23 07:54:30;;;;;;;;;4.00;2.33;;;;;16.52;100.00;99943.66;4877278;29;46915;-81
2023/03/23 08:00:23;;;;;;;;;3.00;3.00;;;;;16.86;100.00;99950.03;4878543;29;45395;-83
2023/03/23 08:02:55;;;;;;;;;4.00;3.33;;;;;16.85;100.00;99949.16;4877016;29;45307;-82
2023/03/23 08:05:23;;;;;;;;;4.00;3.00;;;;;16.85;100.00;99946.50;4876546;29;46462;-81
2023/03/23 08:07:49;;;;;;;;;4.33;3.33;;;;;16.95;100.00;99952.53;4876780;29;45345;-82
2023/03/23 08:10:17;;;;;;;;;4.33;3.33;;;;;17.06;100.00;99954.94;4860336;29;45400;-82
2023/03/23 08:12:46;;;;;;;;;2.67;2.67;;;;;17.15;100.00;99962.78;4861766;29;45520;-82
2023/03/23 08:15:14;;;;;;;;;3.67;2.67;;;;;17.21;100.00;99951.88;4876193;29;46421;-82
2023/03/23 08:17:43;;;;;;;;;3.00;3.00;;;;;17.25;100.00;99963.38;4860165;29;45356;-82
2023/03/23 08:20:12;;;;;;;;;3.00;3.00;;;;;17.24;100.00;99957.13;4879441;29;45606;-83
2023/03/23 08:22:44;;;;;;;;;3.00;2.33;;;;;17.26;100.00;99949.91;4875775;29;45320;-82
2023/03/23 08:25:11;;;;;;;;;5.33;4.00;;;;;17.17;100.00;99964.50;4859776;29;47108;-82
2023/03/23 08:27:40;;;;;;;;;2.00;2.00;;;;;17.30;100.00;99970.41;4878104;29;45358;-82
2023/03/23 08:30:07;;;;;;;;;2.33;2.33;;;;;17.38;100.00;99967.53;4860353;29;45448;-82
2023/03/23 08:32:34;;;;;;;;;5.00;5.00;;;;;17.59;100.00;99966.97;4876475;29;45267;-83
2023/03/23 08:35:03;;;;;;;;;4.67;3.00;;;;;17.58;100.00;99967.00;4861621;29;45780;-83
2023/03/23 08:37:32;;;;;;;;;4.00;3.00;;;;;17.69;100.00;99962.19;4877961;29;45641;-82
2023/03/23 08:39:57;;;;;;;;;5.00;5.00;;;;;17.56;100.00;99972.41;4876251;29;45511;-83
2023/03/23 08:42:24;;;;;;;;;3.00;2.00;;;;;17.69;100.00;99977.47;4876940;29;45465;-82
2023/03/23 08:44:53;;;;;;;;;2.67;2.67;;;;;17.54;100.00;99968.00;4863311;29;46564;-83
2023/03/23 08:47:32;;;;;;;;;1.00;1.00;;;;;17.63;100.00;99983.88;4879567;29;45861;-82
2023/03/23 08:50:00;;;;;;;;;3.00;3.00;;;;;17.58;100.00;99969.69;4878602;29;45399;-82
2023/03/23 08:52:50;;;;;;;;;2.67;2.67;;;;;17.54;100.00;99968.00;4864162;29;45384;-82
2023/03/23 08:55:27;;;;;;;;;;;;;;;;;;;;;
2023/03/23 08:57:53;;;;;;;;;2.00;2.00;;;;;17.34;100.00;99972.09;4878226;29;72070;-83
2023/03/23 09:00:27;;;;;;;;;2.00;2.00;;;;;17.28;100.00;99955.25;4878340;29;44936;-83
2023/03/23 09:03:15;;;;;;;;;;;;;;;;;;;;;
2023/03/23 09:05:49;;;;;;;;;1.00;1.00;;;;;17.67;100.00;100006.19;4897770;29;74427;-82
2023/03/23 09:08:25;;;;;;;;;;;;;;;;;;;;;
2023/03/23 09:11:26;;;;;;;;;2.00;2.00;;;;;17.27;100.00;99970.50;4894448;29;67603;-82
2023/03/23 09:13:55;;;;;;;;;2.00;2.00;;;;;17.64;100.00;99977.59;4894107;29;44896;-83
2023/03/23 09:16:20;;;;;;;;;1.67;1.67;;;;;17.61;100.00;99948.09;4877913;29;46789;-82
2023/03/23 09:19:14;;;;;;;;;;;;;;;;;;;;;
2023/03/23 09:21:40;;;;;;;;;2.33;2.00;;;;;17.99;100.00;99944.34;4895102;29;67540;-84
2023/03/23 09:24:09;;;;;;;;;3.00;2.00;;;;;18.24;100.00;99950.81;4895093;29;45554;-83
2023/03/23 09:27:07;;;;;;;;;1.33;1.33;;;;;18.15;100.00;99938.53;4896194;29;45183;-83
2023/03/23 09:29:55;;;;;;;;;4.00;3.00;;;;;17.99;100.00;99932.69;4960130;23;45518;-84
2023/03/23 09:32:22;;;;;;;;;3.33;3.00;;;;;18.00;100.00;99964.06;4895669;29;45607;-83
2023/03/23 09:35:23;;;;;;;;;2.00;2.00;;;;;18.29;100.00;99984.72;4896202;29;45342;-83
2023/03/23 09:38:01;;;;;;;;;5.00;3.67;;;;;18.22;100.00;99964.34;4852558;29;46827;-84
2023/03/23 09:40:46;;;;;;;;;3.00;3.00;;;;;18.56;100.00;99976.75;4895466;29;45363;-82
2023/03/23 09:43:45;;;;;;;;;31.00;25.67;;;;;18.77;100.00;99991.38;4892467;29;45416;-83
2023/03/23 09:47:01;;;;;;;;;3.25;3.25;;;;;18.76;100.00;99989.59;4892876;29;44923;-83
2023/03/23 09:49:53;;;;;;;;;5.75;5.25;;;;;18.61;100.00;99990.97;4896415;29;47058;-83
2023/03/23 09:52:50;;;;;;;;;;;;;;;;;;;;;
2023/03/23 09:55:34;;;;;;;;;2.00;2.00;;;;;18.43;100.00;99984.31;4893530;29;68053;-82
2023/03/23 09:58:31;;;;;;;;;4.00;2.75;;;;;18.66;100.00;99980.03;4878637;29;45493;-82
2023/03/23 10:01:54;;;;;;;;;4.33;2.00;;;;;18.45;100.00;99936.69;4894300;29;48118;-81
2023/03/23 10:04:49;;;;;;;;;3.67;3.00;;;;;18.74;100.00;99975.28;4763950;29;45971;-81
2023/03/23 10:07:29;;;;;;;;;4.00;3.00;;;;;18.61;100.00;99955.06;4782673;29;44772;-82
2023/03/23 10:10:03;;;;;;;;;2.00;2.00;;;;;18.70;100.00;99935.91;4801772;29;45636;-82
2023/03/23 10:13:00;;;;;;;;;4.00;4.00;;;;;19.03;100.00;99938.44;4799606;29;47175;-83
2023/03/23 10:15:42;;;;;;;;;2.00;2.00;;;;;19.43;97.66;99964.06;4799240;29;45295;-81
2023/03/23 10:18:55;;;;;;;;;3.00;3.00;;;;;19.50;100.00;99947.59;4799116;29;44878;-83
2023/03/23 10:21:35;;;;;;;;;7.00;6.00;;;;;19.69;100.00;99958.63;4778614;29;45514;-82
2023/03/23 10:24:15;;;;;;;;;8.00;5.67;;;;;19.88;99.28;99968.78;4766335;29;45879;-81
2023/03/23 10:27:10;;;;;;;;;3.00;3.00;;;;;19.83;98.75;99933.00;4782167;29;45373;-84
2023/03/23 10:30:03;;;;;;;;;4.50;2.25;;;;;19.92;96.48;99956.94;4780766;29;45708;-83
2023/03/23 10:32:53;;;;;;;;;4.50;3.50;;;;;20.02;95.82;99989.84;4766603;29;44906;-82
2023/03/23 10:35:35;;;;;;;;;3.50;3.00;;;;;19.87;95.45;99967.00;4766027;29;45446;-81
2023/03/23 10:38:16;;;;;;;;;2.00;2.00;;;;;20.03;94.53;99968.22;4785149;29;45602;-81
2023/03/23 10:41:22;;;;;;;;;4.75;4.00;;;;;20.13;93.59;99972.31;4785877;29;45422;-81
2023/03/23 10:44:01;;;;;;;;;2.00;2.00;;;;;20.21;92.12;99981.97;4799855;29;45246;-83
2023/03/23 10:46:53;;;;;;;;;4.00;4.00;;;;;20.28;94.13;99991.56;4781955;29;46782;-82
2023/03/23 10:49:52;;;;;;;;;29.00;27.33;;;;;20.66;90.50;99991.94;4795977;29;44911;-81
2023/03/23 10:52:35;;;;;;;;;2.25;2.25;;;;;20.43;89.08;99942.38;4797364;29;44900;-81
2023/03/23 10:55:10;;;;;;;;;2.00;2.00;;;;;20.64;88.54;99977.63;4796917;29;45434;-82
2023/03/23 10:58:05;;;;;;;;;4.00;3.00;;;;;20.57;91.97;99972.44;4797961;29;45644;-82
2023/03/23 11:04:25;;;;;;;;;1.00;1.00;;;;;20.92;89.43;99980.97;4799336;29;45518;-83
2023/03/23 11:07:52;;;;;;;;;;;;;;;;;;;;;
2023/03/23 11:10:52;;;;;;;;;5.50;3.50;;;;;20.71;85.06;99973.75;4744108;29;74433;-82
2023/03/23 11:13:51;;;;;;;;;2.50;1.50;;;;;20.29;85.39;99933.94;4732189;30;45446;-82
2023/03/23 11:16:55;;;;;;;;;5.00;3.25;;;;;20.54;88.87;99961.75;4744854;30;45937;-82
2023/03/23 11:19:39;;;;;;;;;7.25;7.25;;;;;20.55;85.99;99962.63;4745314;30;45523;-80
2023/03/23 11:22:05;;;;;;;;;3.25;3.00;;;;;20.57;88.76;99972.44;4733476;30;47110;-82
2023/03/23 11:24:40;;;;;;;;;2.75;2.50;;;;;20.74;86.84;99969.09;4731161;30;45551;-81
2023/03/23 11:27:08;;;;;;;;;3.25;3.25;;;;;20.55;87.04;99951.81;4809793;29;45445;-81
2023/03/23 11:29:43;;;;;;;;;2.25;2.25;;;;;20.55;88.21;99951.81;4829064;29;45535;-81
2023/03/23 11:32:12;;;;;;;;;5.75;4.00;;;;;20.81;85.66;99974.25;4844897;29;45401;-80
2023/03/23 11:34:47;;;;;;;;;3.50;3.50;;;;;20.93;86.30;99958.41;4826919;29;45421;-81
2023/03/23 11:37:34;;;;;;;;;3.75;3.75;;;;;21.23;84.29;99968.00;4823999;29;44896;-81
2023/03/23 11:40:05;;;;;;;;;2.00;2.00;;;;;21.13;80.38;99954.00;4828753;29;44825;-82
2023/03/23 11:42:58;;;;;;;;;2.75;2.75;;;;;21.13;82.90;99926.97;4828638;29;46942;-81
2023/03/23 11:45:48;;;;;;;;;3.00;3.00;;;;;21.54;81.17;99967.59;4837617;29;45812;-82
2023/03/23 11:48:49;;;;;;;;;4.75;3.00;;;;;21.55;82.15;99966.66;4822592;29;45491;-81
2023/03/23 11:51:33;;;;;;;;;3.25;2.50;;;;;21.61;79.03;99963.66;4825942;29;45482;-80
2023/03/23 11:54:04;;;;;;;;;4.33;3.33;;;;;21.56;80.83;99965.72;4843684;29;45658;-81
2023/03/23 11:56:34;;;;;;;;;4.50;4.00;;;;;21.38;78.19;99964.66;4861933;29;45825;-81
2023/03/23 11:59:03;;;;;;;;;5.00;3.00;;;;;21.20;78.58;99971.72;4868921;29;44908;-82
2023/03/23 12:01:51;;;;;;;;;5.33;5.33;;;;;21.39;81.63;99961.00;4884152;29;45307;-81
2023/03/23 12:04:35;;;;;;;;;5.00;3.25;;;;;21.39;80.38;99966.44;4885058;29;45511;-81
2023/03/23 12:07:42;;;;;;;;;9.00;2.50;;;;;21.44;80.85;99964.41;4866620;29;45468;-81
2023/03/23 12:10:29;;;;;;;;;;;;;;;;;;;;;